Highway 40, Nevada
Current Conditions -  °F | °C
As of 8:56 PM on Wednesday 26 Nov 2014 (Local Time) from KWMC Reporting Station
Clear Clear  
Wind Chill: 39°   Ceiling: Unl
Heat Index: 43°   Visibility: 10mi
Dew Point: 29°   Wind: 7mph
Humidity: 58%   Direction: 80°E
Pressure: 30.28"   Gusts: NA
Location:  41.5215°N, 118.961°W
Report Text: KWMC 270456Z AUTO 08006KT 10SM CLR 06/M02 A3028 RMK AO2 SLP255 T00611017
Loading
Personal Weather Stations






























Interactive Weather Map New forecast layout! Learn more

10-Day Weather Forecast

Advertisements
Track Severe Weather on mobile